createdAt,value
2018-10-12T00:01:39.233Z,37.80
2018-10-12T00:04:08.159Z,35.43
2018-10-12T00:06:38.704Z,42.33
2018-10-12T00:09:09.430Z,40.50
2018-10-12T00:11:38.499Z,39.57
2018-10-12T00:14:08.548Z,41.53
2018-10-12T00:16:38.936Z,35.03
2018-10-12T00:19:08.723Z,36.20
2018-10-12T00:21:38.076Z,35.90
2018-10-12T00:24:08.598Z,36.20
2018-10-12T00:26:38.615Z,34.60
2018-10-12T00:29:08.343Z,32.50
2018-10-12T00:31:38.547Z,34.73
2018-10-12T00:34:08.551Z,32.33
2018-10-12T00:36:37.557Z,30.40
2018-10-12T00:39:09.031Z,32.73
2018-10-12T00:41:42.782Z,31.60
2018-10-12T00:44:11.677Z,32.27
2018-10-12T00:46:40.742Z,30.00
2018-10-12T00:49:10.782Z,31.53
2018-10-12T00:51:41.403Z,31.90
2018-10-12T00:54:10.381Z,33.50
2018-10-12T00:56:39.336Z,32.10
2018-10-12T00:59:07.953Z,36.97
2018-10-12T01:01:36.546Z,33.27
2018-10-12T01:04:05.517Z,32.63
2018-10-12T01:06:34.784Z,34.27
2018-10-12T01:09:04.387Z,34.73
2018-10-12T01:11:33.644Z,30.80
2018-10-12T01:14:02.547Z,33.60
2018-10-12T01:16:31.246Z,32.80
2018-10-12T01:19:00.886Z,30.67
2018-10-12T01:21:29.622Z,32.77
2018-10-12T01:23:59.025Z,32.57
2018-10-12T01:26:28.066Z,33.20
2018-10-12T01:28:58.081Z,35.63
2018-10-12T01:31:27.847Z,35.23
2018-10-12T01:33:56.764Z,36.70
2018-10-12T01:36:25.465Z,36.93
2018-10-12T01:38:54.571Z,36.87
2018-10-12T01:41:23.299Z,35.87
2018-10-12T01:43:52.298Z,35.77
2018-10-12T01:46:21.478Z,35.70
2018-10-12T01:48:50.444Z,33.90
2018-10-12T01:51:19.123Z,34.40
2018-10-12T01:53:48.715Z,35.67
2018-10-12T01:56:18.542Z,34.47
2018-10-12T01:58:47.441Z,35.73
2018-10-12T02:01:17.343Z,33.53
2018-10-12T02:03:48.163Z,37.30
2018-10-12T02:06:16.931Z,34.07
2018-10-12T02:08:45.854Z,33.90
2018-10-12T02:11:15.571Z,34.63
2018-10-12T02:13:45.420Z,36.63
2018-10-12T02:16:14.274Z,36.37
2018-10-12T02:18:43.970Z,35.47
2018-10-12T02:21:12.769Z,36.63
2018-10-12T02:23:41.698Z,34.97
2018-10-12T02:26:10.560Z,36.57
2018-10-12T02:28:39.800Z,35.37
2018-10-12T02:31:09.551Z,36.63
2018-10-12T02:33:38.799Z,32.83
2018-10-12T02:36:08.110Z,36.53
2018-10-12T02:38:37.742Z,35.30
2018-10-12T02:41:07.738Z,34.10
2018-10-12T02:43:36.835Z,34.10
2018-10-12T02:46:05.688Z,35.53
2018-10-12T02:48:34.660Z,33.83
2018-10-12T02:51:04.592Z,34.10
2018-10-12T02:53:34.081Z,34.50
2018-10-12T02:56:03.461Z,33.53
2018-10-12T02:58:32.061Z,33.80
2018-10-12T03:01:00.883Z,34.93
2018-10-12T03:03:30.773Z,35.03
2018-10-12T03:05:59.660Z,34.23
2018-10-12T03:08:28.675Z,34.67
2018-10-12T03:10:58.392Z,32.33
2018-10-12T03:13:27.303Z,32.70
2018-10-12T03:15:57.053Z,36.43
2018-10-12T03:18:25.870Z,36.80
2018-10-12T03:20:54.821Z,36.83
2018-10-12T03:23:23.542Z,39.90
2018-10-12T03:25:52.743Z,35.63
2018-10-12T03:28:31.332Z,36.43
2018-10-12T03:31:00.782Z,34.90
2018-10-12T03:33:30.128Z,38.13
2018-10-12T03:35:59.150Z,41.17
2018-10-12T03:38:27.962Z,36.77
2018-10-12T03:40:56.750Z,33.60
2018-10-12T03:43:25.524Z,38.40
2018-10-12T03:45:56.509Z,35.33
2018-10-12T03:48:25.059Z,35.07
2018-10-12T03:50:57.543Z,31.60
2018-10-12T03:53:32.308Z,34.73
2018-10-12T03:56:06.557Z,37.60
2018-10-12T03:58:41.722Z,35.33
2018-10-12T04:01:16.830Z,37.73
2018-10-12T04:03:50.826Z,34.47
2018-10-12T04:06:23.433Z,35.27
2018-10-12T04:08:57.829Z,35.40
2018-10-12T04:11:26.669Z,34.87
2018-10-12T04:13:57.965Z,33.03
2018-10-12T04:16:27.593Z,35.83
2018-10-12T04:25:39.393Z,32.47
2018-10-12T04:28:08.430Z,33.73
2018-10-12T04:30:37.441Z,34.20
2018-10-12T04:33:07.223Z,33.47
2018-10-12T04:35:39.014Z,37.23
2018-10-12T04:38:10.484Z,37.47
2018-10-12T04:41:14.866Z,35.03
2018-10-12T04:43:52.650Z,31.17
2018-10-12T04:46:29.501Z,36.83
2018-10-12T04:49:18.389Z,36.33
2018-10-12T04:51:57.712Z,34.90
2018-10-12T04:54:29.378Z,32.77
2018-10-12T04:57:05.389Z,37.70
2018-10-12T04:59:39.194Z,35.33
2018-10-12T05:02:08.154Z,36.17
2018-10-12T05:04:37.335Z,33.60
2018-10-12T05:07:10.607Z,38.33
2018-10-12T05:09:46.511Z,37.07
2018-10-12T05:12:18.247Z,34.67
2018-10-12T05:15:04.941Z,39.23
2018-10-12T05:17:34.037Z,38.90
2018-10-12T05:20:12.059Z,37.17
2018-10-12T05:22:44.851Z,37.73
2018-10-12T05:25:13.621Z,37.00
2018-10-12T05:27:42.602Z,35.03
2018-10-12T05:30:11.455Z,37.53
2018-10-12T05:32:40.079Z,38.20
2018-10-12T05:35:12.277Z,40.77
2018-10-12T05:37:44.392Z,36.17
2018-10-12T05:43:05.067Z,43.57
2018-10-12T05:45:36.392Z,42.20
2018-10-12T05:48:16.130Z,39.43
2018-10-12T05:50:45.745Z,39.47
2018-10-12T05:53:18.390Z,38.13
2018-10-12T05:55:49.268Z,38.27
2018-10-12T05:58:30.488Z,36.73
2018-10-12T06:00:59.699Z,36.10
2018-10-12T06:03:28.488Z,31.30
2018-10-12T06:05:57.462Z,38.13
2018-10-12T06:08:26.086Z,35.33
2018-10-12T06:10:54.899Z,33.13
2018-10-12T06:13:23.644Z,34.50
2018-10-12T06:15:52.551Z,32.43
2018-10-12T06:18:21.767Z,36.30
2018-10-12T06:20:50.503Z,30.93
2018-10-12T06:23:19.422Z,34.43
2018-10-12T06:25:49.831Z,36.90
2018-10-12T06:28:19.666Z,40.87
2018-10-12T06:30:50.515Z,44.43
2018-10-12T06:33:57.953Z,41.30
2018-10-12T06:36:26.436Z,40.40
2018-10-12T06:38:54.958Z,37.27
2018-10-12T06:41:23.476Z,35.50
2018-10-12T06:43:52.040Z,32.07
2018-10-12T06:46:20.549Z,30.70
2018-10-12T06:48:49.022Z,31.70
2018-10-12T06:51:17.527Z,25.33
2018-10-12T06:53:46.001Z,30.10
2018-10-12T06:56:14.732Z,26.90
2018-10-12T06:58:44.286Z,28.07
2018-10-12T07:01:13.075Z,25.07
2018-10-12T07:03:41.904Z,25.87
2018-10-12T07:06:11.044Z,26.63
2018-10-12T07:08:39.654Z,22.80
2018-10-12T07:11:09.156Z,25.07
2018-10-12T07:13:37.826Z,22.60
2018-10-12T07:16:06.329Z,24.67
2018-10-12T07:18:34.902Z,23.37
2018-10-12T07:21:03.764Z,23.63
2018-10-12T07:23:32.324Z,22.97
2018-10-12T07:26:01.184Z,25.13
2018-10-12T07:28:29.810Z,22.87
2018-10-12T07:30:58.358Z,26.13
2018-10-12T07:33:26.935Z,22.77
2018-10-12T07:35:55.462Z,23.20
2018-10-12T07:38:24.155Z,23.97
2018-10-12T07:40:52.691Z,27.73
2018-10-12T07:43:22.045Z,24.73
2018-10-12T07:45:50.760Z,24.57
2018-10-12T07:48:19.378Z,23.30
2018-10-12T07:50:47.916Z,25.70
2018-10-12T07:53:16.535Z,25.10
2018-10-12T07:55:45.098Z,24.33
2018-10-12T07:58:13.634Z,23.70
2018-10-12T08:00:42.189Z,25.17
2018-10-12T08:03:10.772Z,24.37
2018-10-12T08:05:39.376Z,26.17
2018-10-12T08:08:08.277Z,25.27
2018-10-12T08:10:36.837Z,26.03
2018-10-12T08:13:05.647Z,23.83
2018-10-12T08:15:34.243Z,26.10
2018-10-12T08:18:02.839Z,26.60
2018-10-12T08:20:31.718Z,29.07
2018-10-12T08:23:00.311Z,26.37
2018-10-12T08:25:28.878Z,26.57
2018-10-12T08:27:57.569Z,24.70
2018-10-12T08:30:26.242Z,30.57
2018-10-12T08:32:55.011Z,24.87
2018-10-12T08:35:23.551Z,26.30
2018-10-12T08:37:52.155Z,25.73
2018-10-12T08:40:21.046Z,25.33
2018-10-12T08:42:49.594Z,29.70
2018-10-12T08:45:18.176Z,28.60
2018-10-12T08:47:46.749Z,27.67
2018-10-12T08:50:15.433Z,28.77
2018-10-12T08:52:43.986Z,27.83
2018-10-12T08:55:12.542Z,25.53
2018-10-12T08:57:41.067Z,25.37
2018-10-12T09:00:09.645Z,26.70
2018-10-12T09:02:38.241Z,23.10
2018-10-12T09:05:06.831Z,25.10
2018-10-12T09:07:35.518Z,21.10
2018-10-12T09:10:04.305Z,24.90
2018-10-12T09:12:32.894Z,22.67
2018-10-12T09:15:01.573Z,22.17
2018-10-12T09:17:30.139Z,21.93
2018-10-12T09:19:59.165Z,24.97
2018-10-12T09:22:27.698Z,21.60
2018-10-12T09:24:56.491Z,21.57
2018-10-12T09:27:25.128Z,19.23
2018-10-12T09:29:53.668Z,23.07
2018-10-12T09:32:22.358Z,23.70
2018-10-12T09:34:50.920Z,17.83
2018-10-12T09:37:19.463Z,17.03
2018-10-12T09:39:48.392Z,20.13
2018-10-12T09:42:17.128Z,17.87
2018-10-12T09:44:45.661Z,23.57
2018-10-12T09:47:14.368Z,23.37
2018-10-12T09:49:42.914Z,20.27
2018-10-12T09:52:11.507Z,21.13
2018-10-12T09:54:40.319Z,20.27
2018-10-12T09:57:14.379Z,22.03
2018-10-12T09:59:43.343Z,21.57
2018-10-12T10:02:17.401Z,23.57
2018-10-12T10:04:46.169Z,26.53
2018-10-12T10:07:14.822Z,25.67
2018-10-12T10:09:43.632Z,24.53
2018-10-12T10:12:12.168Z,22.40
2018-10-12T10:14:40.732Z,22.73
2018-10-12T10:17:09.321Z,22.13
2018-10-12T10:19:38.185Z,22.80
2018-10-12T10:22:06.797Z,21.00
2018-10-12T10:24:35.402Z,20.67
2018-10-12T10:27:04.952Z,20.03
2018-10-12T10:29:33.484Z,20.27
2018-10-12T10:32:02.608Z,21.93
2018-10-12T10:34:31.376Z,16.73
2018-10-12T10:36:59.939Z,18.30
2018-10-12T10:39:28.560Z,17.70
2018-10-12T10:41:57.307Z,18.33
2018-10-12T10:44:25.853Z,18.93
2018-10-12T10:46:54.415Z,20.17
2018-10-12T10:49:23.128Z,20.23
2018-10-12T10:51:51.765Z,19.97
2018-10-12T10:54:20.543Z,20.07
2018-10-12T10:56:49.151Z,22.23
2018-10-12T10:59:17.722Z,17.73
2018-10-12T11:01:46.238Z,19.23
2018-10-12T11:04:14.789Z,21.43
2018-10-12T11:06:43.313Z,20.03
2018-10-12T11:09:11.884Z,21.33
2018-10-12T11:11:40.418Z,19.63
2018-10-12T11:14:08.932Z,21.50
2018-10-12T11:16:38.023Z,22.90
2018-10-12T11:19:07.057Z,21.20
2018-10-12T11:21:35.642Z,26.10
2018-10-12T11:24:04.414Z,23.07
2018-10-12T11:26:33.081Z,20.90
2018-10-12T11:29:01.830Z,22.83
2018-10-12T11:31:30.447Z,22.50
2018-10-12T11:33:59.348Z,23.03
2018-10-12T11:36:28.328Z,21.03
2018-10-12T11:38:56.910Z,18.73
2018-10-12T11:41:26.290Z,17.80
2018-10-12T11:43:55.019Z,20.40
2018-10-12T11:46:23.711Z,22.33
2018-10-12T11:48:52.278Z,18.67
2018-10-12T11:51:21.078Z,15.97
2018-10-12T11:53:49.647Z,17.07
2018-10-12T11:56:18.198Z,16.97
2018-10-12T11:58:46.954Z,21.17
2018-10-12T12:01:15.727Z,17.43
2018-10-12T12:03:44.340Z,15.93
2018-10-12T12:06:13.024Z,16.17
2018-10-12T12:08:41.816Z,18.97
2018-10-12T12:11:10.370Z,19.93
2018-10-12T12:13:38.947Z,20.80
2018-10-12T12:16:07.898Z,19.90
2018-10-12T12:18:36.627Z,21.83
2018-10-12T12:21:05.192Z,21.73
2018-10-12T12:23:33.883Z,23.60
2018-10-12T12:26:02.623Z,20.10
2018-10-12T12:28:31.156Z,23.90
2018-10-12T12:31:00.201Z,22.33
2018-10-12T12:33:28.858Z,19.77
2018-10-12T12:35:57.977Z,22.53
2018-10-12T12:38:26.398Z,22.43
2018-10-12T12:40:54.973Z,19.33
2018-10-12T12:43:23.676Z,23.20
2018-10-12T12:45:52.164Z,19.53
2018-10-12T12:48:21.479Z,20.13
2018-10-12T12:50:50.251Z,24.33
2018-10-12T12:53:18.934Z,19.57
2018-10-12T12:55:47.658Z,18.33
2018-10-12T12:58:16.340Z,20.87
2018-10-12T13:00:44.995Z,20.43
2018-10-12T13:03:13.449Z,22.53
2018-10-12T13:05:42.004Z,17.07
2018-10-12T13:08:10.560Z,17.27
2018-10-12T13:10:39.362Z,21.57
2018-10-12T13:13:07.948Z,18.60
2018-10-12T13:15:36.823Z,19.20
2018-10-12T13:18:05.455Z,19.13
2018-10-12T13:20:33.979Z,18.73
2018-10-12T13:23:02.615Z,20.47
2018-10-12T13:25:31.128Z,18.40
2018-10-12T13:27:59.716Z,17.00
2018-10-12T13:30:28.305Z,19.37
2018-10-12T13:32:56.955Z,16.53
2018-10-12T13:35:25.535Z,16.73
2018-10-12T13:37:54.087Z,21.13
2018-10-12T13:40:22.599Z,19.40
2018-10-12T13:42:51.523Z,17.33
2018-10-12T13:45:20.195Z,17.17
2018-10-12T13:47:49.452Z,18.43
2018-10-12T13:50:18.133Z,18.57
2018-10-12T13:52:46.855Z,17.20
2018-10-12T13:55:15.346Z,18.10
2018-10-12T13:57:43.990Z,15.80
2018-10-12T14:00:12.682Z,21.53
2018-10-12T14:02:41.288Z,20.97
2018-10-12T14:05:09.828Z,19.87
2018-10-12T14:07:38.578Z,20.33
2018-10-12T14:10:07.311Z,17.23
2018-10-12T14:12:35.870Z,19.77
2018-10-12T14:15:04.870Z,34.67
2018-10-12T14:17:33.414Z,34.27
2018-10-12T14:20:02.015Z,27.93
2018-10-12T14:22:30.924Z,35.03
2018-10-12T14:24:59.511Z,22.83
2018-10-12T14:27:28.033Z,26.63
2018-10-12T14:29:56.593Z,27.63
2018-10-12T14:32:25.434Z,25.63
2018-10-12T14:34:54.231Z,23.00
2018-10-12T14:37:22.818Z,21.43
2018-10-12T14:39:51.501Z,41.00
2018-10-12T14:42:20.041Z,40.80
2018-10-12T14:44:48.677Z,35.77
2018-10-12T14:47:17.212Z,21.57
2018-10-12T14:49:45.749Z,18.70
2018-10-12T14:52:14.372Z,25.33
2018-10-12T14:58:05.529Z,37.13
2018-10-12T15:00:34.919Z,41.97
2018-10-12T15:03:04.387Z,25.10
2018-10-12T15:05:33.207Z,18.57
2018-10-12T15:08:01.790Z,16.40
2018-10-12T15:10:30.782Z,15.97
2018-10-12T15:16:00.817Z,14.30
2018-10-12T15:18:29.478Z,15.30
2018-10-12T15:20:58.234Z,15.10
2018-10-12T15:23:27.116Z,15.60
2018-10-12T15:25:55.711Z,15.17
2018-10-12T15:28:24.464Z,18.40
2018-10-12T15:30:53.264Z,16.27
2018-10-12T15:33:21.963Z,17.33
2018-10-12T15:35:50.732Z,19.97
2018-10-12T15:38:19.309Z,18.20
2018-10-12T15:40:47.919Z,17.30
2018-10-12T15:43:16.699Z,22.77
2018-10-12T15:45:45.220Z,28.00
2018-10-12T15:48:13.755Z,38.57
2018-10-12T15:50:42.281Z,41.33
2018-10-12T15:53:10.974Z,42.83
2018-10-12T15:55:39.806Z,73.97
2018-10-12T15:58:08.447Z,155.47
2018-10-12T16:00:36.979Z,190.73
2018-10-12T16:03:05.696Z,156.73
2018-10-12T16:05:34.354Z,105.37
2018-10-12T16:08:03.043Z,82.33
2018-10-12T16:10:32.175Z,100.20
2018-10-12T16:13:01.032Z,102.57
2018-10-12T16:15:29.601Z,70.83
2018-10-12T16:17:58.198Z,48.07
2018-10-12T16:20:27.169Z,33.40
2018-10-12T16:22:55.815Z,31.17
2018-10-12T16:26:16.380Z,28.20
2018-10-12T16:28:45.196Z,32.90
2018-10-12T16:31:14.043Z,32.63
2018-10-12T16:33:42.901Z,34.83
2018-10-12T16:36:12.185Z,33.97
2018-10-12T16:38:40.968Z,34.53
2018-10-12T16:41:09.499Z,35.53
2018-10-12T16:43:38.190Z,34.40
2018-10-12T16:46:06.840Z,34.93
2018-10-12T16:48:35.653Z,36.57
2018-10-12T16:51:04.318Z,38.83
2018-10-12T16:53:32.930Z,42.20
2018-10-12T16:56:01.525Z,42.60
2018-10-12T16:58:30.208Z,35.93
2018-10-12T17:00:58.803Z,42.27
2018-10-12T17:03:27.709Z,41.53
2018-10-12T17:05:57.977Z,45.83
2018-10-12T17:08:27.026Z,57.17
2018-10-12T17:10:55.755Z,51.17
2018-10-12T17:13:24.338Z,49.23
2018-10-12T17:15:53.015Z,53.80
2018-10-12T17:18:21.673Z,58.10
2018-10-12T17:20:50.225Z,51.10
2018-10-12T17:23:19.275Z,47.83
2018-10-12T17:25:48.729Z,47.77
2018-10-12T17:28:17.429Z,52.23
2018-10-12T17:30:46.092Z,50.90
2018-10-12T17:33:14.941Z,50.63
2018-10-12T17:35:43.697Z,46.13
2018-10-12T17:38:12.275Z,43.50
2018-10-12T17:40:40.842Z,44.77
2018-10-12T17:43:10.423Z,36.60
2018-10-12T17:45:39.031Z,39.43
2018-10-12T17:48:07.563Z,41.53
2018-10-12T17:50:36.152Z,47.90
2018-10-12T17:53:04.868Z,42.30
2018-10-12T17:55:33.472Z,40.77
2018-10-12T17:58:02.139Z,34.17
2018-10-12T18:00:30.876Z,33.70
2018-10-12T18:02:59.368Z,36.27
2018-10-12T18:05:27.889Z,34.77
2018-10-12T18:07:56.479Z,39.60
2018-10-12T18:10:25.354Z,51.93
2018-10-12T18:12:54.584Z,57.43
2018-10-12T18:15:23.261Z,56.80
2018-10-12T18:17:51.883Z,60.30
2018-10-12T18:20:20.423Z,121.73
2018-10-12T18:22:49.160Z,102.80
2018-10-12T18:25:17.985Z,64.90
2018-10-12T18:27:46.843Z,42.27
2018-10-12T18:30:15.391Z,32.10
2018-10-12T18:32:44.042Z,31.73
2018-10-12T18:35:12.861Z,30.23
2018-10-12T18:37:42.760Z,29.40
2018-10-12T18:40:11.384Z,45.27
2018-10-12T18:42:40.285Z,70.07
2018-10-12T18:45:09.245Z,60.93
2018-10-12T18:47:37.920Z,50.17
2018-10-12T18:50:07.063Z,40.00
2018-10-12T18:52:36.199Z,31.77
2018-10-12T18:55:05.052Z,30.90
2018-10-12T18:57:35.168Z,31.30
2018-10-12T19:00:06.000Z,26.60
2018-10-12T19:02:35.020Z,31.50
2018-10-12T19:05:04.625Z,27.40
2018-10-12T19:07:33.601Z,24.40
2018-10-12T19:10:02.256Z,25.77
2018-10-12T19:12:30.912Z,27.60
2018-10-12T19:14:59.662Z,27.23
2018-10-12T19:17:28.344Z,27.10
2018-10-12T19:19:57.179Z,25.63
2018-10-12T19:22:25.990Z,26.10
2018-10-12T19:24:54.681Z,25.23
2018-10-12T19:27:23.604Z,40.10
2018-10-12T19:29:52.340Z,65.47
2018-10-12T19:32:20.959Z,62.00
2018-10-12T19:37:30.432Z,44.50
2018-10-12T19:39:59.225Z,43.97
2018-10-12T19:42:28.575Z,40.67
2018-10-12T19:44:57.449Z,38.63
2018-10-12T19:47:26.481Z,39.20
2018-10-12T19:49:55.227Z,37.37
2018-10-12T19:52:24.193Z,36.20
2018-10-12T19:54:52.788Z,30.83
2018-10-12T19:57:21.356Z,36.17
2018-10-12T19:59:49.939Z,31.57
2018-10-12T20:02:18.549Z,31.47
2018-10-12T20:04:47.560Z,32.30
2018-10-12T20:07:16.352Z,34.70
2018-10-12T20:09:45.382Z,34.80
2018-10-12T20:12:14.181Z,41.67
2018-10-12T20:14:43.157Z,55.53
2018-10-12T20:17:11.677Z,59.67
2018-10-12T20:19:40.398Z,45.90
2018-10-12T20:22:10.817Z,38.87
2018-10-12T20:24:40.201Z,51.73
2018-10-12T20:27:08.770Z,48.03
2018-10-12T20:29:38.022Z,48.57
2018-10-12T20:32:07.916Z,50.80
2018-10-12T20:34:37.120Z,46.83
2018-10-12T20:37:06.668Z,43.70
2018-10-12T20:39:35.369Z,46.20
2018-10-12T20:42:04.119Z,47.37
2018-10-12T20:44:32.676Z,48.37
2018-10-12T20:47:01.542Z,46.63
2018-10-12T20:49:30.104Z,48.07
2018-10-12T20:51:58.750Z,50.33
2018-10-12T20:54:28.150Z,47.40
2018-10-12T20:56:56.986Z,50.40
2018-10-12T20:59:26.024Z,49.20
2018-10-12T21:01:54.891Z,48.93
2018-10-12T21:04:23.621Z,44.70
2018-10-12T21:06:52.244Z,49.07
2018-10-12T21:09:21.020Z,47.80
2018-10-12T21:11:49.838Z,45.50
2018-10-12T21:14:18.429Z,50.40
2018-10-12T21:16:47.207Z,53.23
2018-10-12T21:19:15.793Z,46.93
2018-10-12T21:21:44.340Z,43.77
2018-10-12T21:24:13.091Z,46.20
2018-10-12T21:26:41.770Z,42.97
2018-10-12T21:29:10.811Z,42.30
2018-10-12T21:31:39.372Z,45.33
2018-10-12T21:34:08.315Z,47.80
2018-10-12T21:36:36.838Z,43.03
2018-10-12T21:39:06.569Z,43.37
2018-10-12T21:41:35.498Z,42.93
2018-10-12T21:44:04.084Z,48.63
2018-10-12T21:46:32.714Z,43.67
2018-10-12T21:49:01.760Z,42.13
2018-10-12T21:51:30.811Z,48.03
2018-10-12T21:53:59.565Z,47.57
2018-10-12T21:56:28.122Z,46.67
2018-10-12T21:58:56.639Z,48.13
2018-10-12T22:01:25.197Z,44.77
2018-10-12T22:03:53.749Z,45.33
2018-10-12T22:06:22.412Z,43.20
2018-10-12T22:08:53.501Z,47.73
2018-10-12T22:11:22.112Z,50.27
2018-10-12T22:13:50.803Z,51.57
2018-10-12T22:16:19.310Z,53.03
2018-10-12T22:18:47.828Z,47.27
2018-10-12T22:21:16.433Z,48.53
2018-10-12T22:23:44.971Z,51.10
2018-10-12T22:26:13.793Z,49.93
2018-10-12T22:28:43.096Z,52.00
2018-10-12T22:31:11.622Z,48.00
2018-10-12T22:33:40.310Z,49.57
2018-10-12T22:36:08.874Z,49.70
2018-10-12T22:38:37.591Z,52.53
2018-10-12T22:41:06.568Z,53.37
2018-10-12T22:43:35.284Z,50.03
2018-10-12T22:46:04.093Z,50.23
2018-10-12T22:48:32.636Z,48.30
2018-10-12T22:51:01.447Z,46.33
2018-10-12T22:53:30.609Z,47.17
2018-10-12T22:55:59.203Z,48.07
2018-10-12T22:58:27.881Z,49.40
2018-10-12T23:00:56.396Z,46.30
2018-10-12T23:03:24.928Z,42.57
2018-10-12T23:05:53.586Z,49.83
2018-10-12T23:08:22.211Z,52.60
2018-10-12T23:10:50.906Z,55.77
2018-10-12T23:13:19.509Z,51.23
2018-10-12T23:15:48.238Z,49.37
2018-10-12T23:18:17.109Z,53.00
2018-10-12T23:20:46.308Z,55.43
2018-10-12T23:23:14.887Z,56.03
2018-10-12T23:25:43.474Z,52.47
2018-10-12T23:28:12.120Z,51.13
2018-10-12T23:30:40.624Z,54.67
2018-10-12T23:33:22.945Z,52.93
2018-10-12T23:35:51.749Z,53.17
2018-10-12T23:38:20.449Z,49.03
2018-10-12T23:40:49.308Z,61.37
2018-10-12T23:43:17.836Z,61.93
2018-10-12T23:45:46.572Z,58.63
2018-10-12T23:48:15.086Z,56.33
2018-10-12T23:50:43.824Z,68.23
2018-10-12T23:53:12.533Z,67.40
2018-10-12T23:55:41.212Z,67.30
2018-10-12T23:58:09.804Z,66.27
